createdAt,value
2023-04-25T00:00:15.592Z,5
2023-04-25T00:01:15.269Z,5
2023-04-25T00:06:14.377Z,4
2023-04-25T00:07:15.069Z,4
2023-04-25T00:08:15.400Z,4
2023-04-25T00:09:15.533Z,4
2023-04-25T00:13:14.611Z,3
2023-04-25T00:14:14.791Z,3
2023-04-25T00:15:15.292Z,3
2023-04-25T00:16:15.061Z,3
2023-04-25T00:17:14.897Z,3
2023-04-25T00:18:15.254Z,3
2023-04-25T00:19:15.601Z,3
2023-04-25T00:22:14.884Z,3
2023-04-25T00:23:15.306Z,3
2023-04-25T00:24:14.701Z,3
2023-04-25T00:25:15.153Z,3
2023-04-25T00:26:15.221Z,3
2023-04-25T00:27:15.555Z,3
2023-04-25T00:28:14.881Z,3
2023-04-25T00:29:14.727Z,3
2023-04-25T00:30:15.478Z,3
2023-04-25T00:31:14.726Z,3
2023-04-25T00:32:15.149Z,4
2023-04-25T00:33:15.370Z,4
2023-04-25T00:34:15.108Z,4
2023-04-25T00:35:15.604Z,4
2023-04-25T00:36:14.719Z,4
2023-04-25T00:37:14.972Z,3
2023-04-25T00:38:15.328Z,3
2023-04-25T00:39:15.258Z,3
2023-04-25T00:42:15.098Z,4
2023-04-25T00:43:15.260Z,4
2023-04-25T00:44:14.591Z,4
2023-04-25T00:45:15.016Z,4
2023-04-25T00:46:15.713Z,4
2023-04-25T00:47:14.968Z,6
2023-04-25T00:48:15.310Z,6
2023-04-25T00:51:14.795Z,6
2023-04-25T00:52:15.108Z,6
2023-04-25T00:53:15.404Z,6
2023-04-25T00:54:15.321Z,6
2023-04-25T00:55:14.731Z,6
2023-04-25T00:56:15.397Z,6
2023-04-25T00:57:15.466Z,4
2023-04-25T00:58:14.758Z,4
2023-04-25T00:59:15.006Z,4
2023-04-25T01:02:15.278Z,5
2023-04-25T01:03:16.023Z,5
2023-04-25T01:04:16.369Z,5
2023-04-25T01:05:14.866Z,5
2023-04-25T01:06:14.876Z,5
2023-04-25T01:07:15.231Z,3
2023-04-25T01:08:15.479Z,3
2023-04-25T01:09:14.564Z,3
2023-04-25T01:10:15.195Z,3
2023-04-25T01:11:15.274Z,3
2023-04-25T01:12:15.635Z,1
2023-04-25T01:17:15.211Z,5
2023-04-25T01:18:15.584Z,5
2023-04-25T01:20:14.721Z,5
2023-04-25T01:21:15.000Z,5
2023-04-25T01:22:15.263Z,4
2023-04-25T01:23:14.743Z,4
2023-04-25T01:24:14.783Z,4
2023-04-25T01:25:15.139Z,4
2023-04-25T01:26:15.214Z,4
2023-04-25T01:27:14.581Z,5
2023-04-25T01:28:14.877Z,5
2023-04-25T01:29:15.396Z,5
2023-04-25T01:30:14.794Z,5
2023-04-25T01:31:14.896Z,5
2023-04-25T01:32:15.595Z,5
2023-04-25T01:33:15.342Z,5
2023-04-25T01:34:15.698Z,5
2023-04-25T01:39:14.916Z,4
2023-04-25T01:40:14.949Z,4
2023-04-25T01:41:14.991Z,4
2023-04-25T01:42:15.263Z,6
2023-04-25T01:43:15.477Z,6
2023-04-25T01:44:14.569Z,6
2023-04-25T01:45:14.845Z,6
2023-04-25T01:46:15.780Z,6
2023-04-25T01:47:14.207Z,4
2023-04-25T01:48:15.696Z,4
2023-04-25T01:49:14.801Z,4
2023-04-25T01:50:15.148Z,4
2023-04-25T01:51:15.457Z,4
2023-04-25T01:55:15.236Z,5
2023-04-25T01:56:15.363Z,5
2023-04-25T01:57:14.713Z,4
2023-04-25T01:58:15.102Z,4
2023-04-25T01:59:15.272Z,4
2023-04-25T02:00:15.527Z,4
2023-04-25T02:01:14.956Z,4
2023-04-25T02:02:15.084Z,5
2023-04-25T02:03:16.392Z,5
2023-04-25T02:04:16.873Z,5
2023-04-25T02:05:15.276Z,5
2023-04-25T02:06:15.606Z,5
2023-04-25T02:07:14.831Z,5
2023-04-25T02:08:15.022Z,5
2023-04-25T02:09:15.342Z,5
2023-04-25T02:13:14.712Z,4
2023-04-25T02:14:14.825Z,4
2023-04-25T02:15:15.188Z,4
2023-04-25T02:16:16.083Z,4
2023-04-25T02:17:15.375Z,0
2023-04-25T02:18:15.288Z,0
2023-04-25T02:19:15.376Z,0
2023-04-25T02:20:15.754Z,0
2023-04-25T02:21:15.199Z,0
2023-04-25T02:22:15.269Z,5
2023-04-25T02:23:15.394Z,5
2023-04-25T02:28:14.698Z,1
2023-04-25T02:29:15.050Z,1
2023-04-25T02:30:15.190Z,1
2023-04-25T02:31:15.717Z,1
2023-04-25T02:32:14.714Z,5
2023-04-25T02:33:15.287Z,5
2023-04-25T02:34:15.257Z,5
2023-04-25T02:35:15.591Z,5
2023-04-25T02:36:14.698Z,5
2023-04-25T02:37:14.997Z,4
2023-04-25T02:38:15.345Z,4
2023-04-25T02:39:15.503Z,4
2023-04-25T02:40:14.879Z,4
2023-04-25T02:41:15.005Z,4
2023-04-25T02:42:15.212Z,0
2023-04-25T02:43:15.379Z,0
2023-04-25T02:44:14.781Z,0
2023-04-25T02:45:15.072Z,0
2023-04-25T02:46:15.648Z,0
2023-04-25T02:47:15.592Z,0
2023-04-25T02:49:15.174Z,0
2023-04-25T02:50:15.413Z,0
2023-04-25T02:51:14.827Z,0
2023-04-25T02:52:14.045Z,0
2023-04-25T02:53:15.347Z,0
2023-04-25T02:54:15.233Z,0
2023-04-25T02:59:14.496Z,1
2023-04-25T03:00:14.946Z,1
2023-04-25T03:01:15.253Z,1
2023-04-25T03:02:15.141Z,0
2023-04-25T03:03:16.216Z,0
2023-04-25T03:04:14.718Z,0
2023-04-25T03:05:14.834Z,0
2023-04-25T03:06:15.075Z,0
2023-04-25T03:07:15.339Z,1
2023-04-25T03:08:15.576Z,1
2023-04-25T03:09:14.662Z,1
2023-04-25T03:10:14.975Z,1
2023-04-25T03:11:15.216Z,1
2023-04-25T03:12:14.810Z,1
2023-04-25T03:13:15.038Z,1
2023-04-25T03:14:15.173Z,1
2023-04-25T03:15:15.456Z,1
2023-04-25T03:16:14.841Z,1
2023-04-25T03:17:15.111Z,3
2023-04-25T03:20:14.611Z,3
2023-04-25T03:21:15.287Z,3
2023-04-25T03:22:15.380Z,0
2023-04-25T03:23:15.218Z,0
2023-04-25T03:24:14.444Z,0
2023-04-25T03:25:14.958Z,0
2023-04-25T03:26:15.332Z,0
2023-04-25T03:31:14.659Z,0
2023-04-25T03:32:15.426Z,3
2023-04-25T03:33:15.508Z,3
2023-04-25T03:34:15.383Z,3
2023-04-25T03:35:14.791Z,3
2023-04-25T03:36:14.951Z,3
2023-04-25T03:37:15.464Z,6
2023-04-25T03:41:14.881Z,6
2023-04-25T03:42:15.302Z,5
2023-04-25T03:43:15.373Z,5
2023-04-25T03:44:14.559Z,5
2023-04-25T03:45:14.931Z,5
2023-04-25T03:46:15.051Z,5
2023-04-25T03:47:15.193Z,3
2023-04-25T03:48:15.273Z,3
2023-04-25T03:49:17.093Z,3
2023-04-25T03:50:14.751Z,3
2023-04-25T03:51:14.869Z,3
2023-04-25T03:52:15.185Z,1
2023-04-25T03:53:15.445Z,1
2023-04-25T03:54:15.498Z,1
2023-04-25T03:55:14.882Z,1
2023-04-25T03:56:14.936Z,1
2023-04-25T03:57:15.042Z,3
2023-04-25T03:58:15.512Z,3
2023-04-25T03:59:14.688Z,3
2023-04-25T04:00:15.073Z,3
2023-04-25T04:01:15.497Z,3
2023-04-25T04:02:16.189Z,3
2023-04-25T04:03:15.653Z,3
2023-04-25T04:04:16.595Z,3
2023-04-25T04:06:15.716Z,3
2023-04-25T04:11:14.926Z,6
2023-04-25T04:12:15.319Z,0
2023-04-25T04:13:14.685Z,0
2023-04-25T04:14:14.990Z,0
2023-04-25T04:15:15.218Z,0
2023-04-25T04:16:15.757Z,0
2023-04-25T04:17:14.622Z,1
2023-04-25T04:18:15.229Z,1
2023-04-25T04:19:15.407Z,1
2023-04-25T04:20:15.609Z,1
2023-04-25T04:21:14.815Z,1
2023-04-25T04:22:15.096Z,0
2023-04-25T04:23:15.217Z,0
2023-04-25T04:24:14.576Z,0
2023-04-25T04:25:15.009Z,0
2023-04-25T04:26:15.232Z,0
2023-04-25T04:27:15.488Z,0
2023-04-25T04:28:14.661Z,0
2023-04-25T04:29:14.801Z,0
2023-04-25T04:30:15.504Z,0
2023-04-25T04:31:15.758Z,0
2023-04-25T04:32:14.649Z,4
2023-04-25T04:33:15.120Z,4
2023-04-25T04:34:15.172Z,4
2023-04-25T04:35:15.057Z,4
2023-04-25T04:36:15.564Z,4
2023-04-25T04:37:14.685Z,5
2023-04-25T04:38:15.169Z,5
2023-04-25T04:39:15.306Z,5
2023-04-25T04:43:14.686Z,3
2023-04-25T04:44:16.981Z,3
2023-04-25T04:45:15.319Z,3
2023-04-25T04:46:15.906Z,3
2023-04-25T04:47:14.722Z,8
2023-04-25T04:48:15.456Z,8
2023-04-25T04:49:15.277Z,8
2023-04-25T04:50:15.667Z,8
2023-04-25T04:53:15.177Z,8
2023-04-25T04:54:15.508Z,8
2023-04-25T04:55:14.490Z,8
2023-04-25T04:56:15.495Z,8
2023-04-25T04:57:15.012Z,7
2023-04-25T04:58:16.484Z,7
2023-04-25T04:59:15.358Z,7
2023-04-25T05:00:14.840Z,7
2023-04-25T05:01:14.933Z,7
2023-04-25T05:02:15.335Z,8
2023-04-25T05:03:16.634Z,8
2023-04-25T05:05:14.923Z,8
2023-04-25T05:06:15.375Z,8
2023-04-25T05:07:15.461Z,11
2023-04-25T05:08:14.561Z,11
2023-04-25T05:09:15.041Z,11
2023-04-25T05:10:15.240Z,11
2023-04-25T05:11:14.940Z,11
2023-04-25T05:12:15.197Z,7
2023-04-25T05:13:15.562Z,7
2023-04-25T05:14:14.688Z,7
2023-04-25T05:15:15.052Z,7
2023-04-25T05:16:15.382Z,7
2023-04-25T05:17:15.720Z,6
2023-04-25T05:18:14.885Z,6
2023-04-25T05:19:15.056Z,6
2023-04-25T05:20:15.338Z,6
2023-04-25T05:24:14.685Z,5
2023-04-25T05:25:14.906Z,5
2023-04-25T05:26:15.284Z,5
2023-04-25T05:27:15.559Z,6
2023-04-25T05:28:14.625Z,6
2023-04-25T05:29:14.983Z,6
2023-04-25T05:30:15.475Z,6
2023-04-25T05:31:15.004Z,6
2023-04-25T05:32:15.764Z,8
2023-04-25T05:33:16.096Z,8
2023-04-25T05:34:14.625Z,8
2023-04-25T05:35:15.145Z,8
2023-04-25T05:36:15.310Z,8
2023-04-25T05:37:15.621Z,5
2023-04-25T05:38:14.877Z,5
2023-04-25T05:39:14.892Z,5
2023-04-25T05:40:15.468Z,5
2023-04-25T05:41:15.490Z,5
2023-04-25T05:42:15.681Z,8
2023-04-25T05:43:14.754Z,8
2023-04-25T05:44:14.918Z,8
2023-04-25T05:45:15.430Z,8
2023-04-25T05:46:14.918Z,8
2023-04-25T05:47:15.082Z,8
2023-04-25T05:48:15.456Z,8
2023-04-25T05:50:15.148Z,8
2023-04-25T05:51:15.555Z,8
2023-04-25T05:52:14.764Z,6
2023-04-25T05:53:15.146Z,6
2023-04-25T05:54:15.101Z,6
2023-04-25T05:55:15.452Z,6
2023-04-25T05:56:14.675Z,6
2023-04-25T05:57:14.984Z,8
2023-04-25T05:58:15.156Z,8
2023-04-25T06:00:15.171Z,8
2023-04-25T06:01:14.980Z,8
2023-04-25T06:02:15.773Z,9
2023-04-25T06:03:17.113Z,9
2023-04-25T06:04:16.942Z,9
2023-04-25T06:05:16.937Z,9
2023-04-25T06:06:15.792Z,9
2023-04-25T06:07:14.606Z,4
2023-04-25T06:08:14.922Z,4
2023-04-25T06:13:14.785Z,11
2023-04-25T06:14:15.026Z,11
2023-04-25T06:15:35.963Z,11
2023-04-25T06:16:14.660Z,11
2023-04-25T06:17:14.774Z,13
2023-04-25T06:18:15.364Z,13
2023-04-25T06:21:14.825Z,13
2023-04-25T06:22:14.915Z,9
2023-04-25T06:23:15.215Z,9
2023-04-25T06:24:15.304Z,9
2023-04-25T06:25:14.866Z,9
2023-04-25T06:26:15.177Z,9
2023-04-25T06:27:17.050Z,11
2023-04-25T06:29:14.573Z,11
2023-04-25T06:30:15.098Z,11
2023-04-25T06:34:14.817Z,6
2023-04-25T06:35:15.477Z,6
2023-04-25T06:36:14.836Z,6
2023-04-25T06:37:15.460Z,13
2023-04-25T06:38:14.729Z,13
2023-04-25T06:39:15.107Z,13
2023-04-25T06:40:15.474Z,13
2023-04-25T06:41:15.513Z,13
2023-04-25T06:42:14.781Z,14
2023-04-25T06:43:14.984Z,14
2023-04-25T06:44:15.380Z,14
2023-04-25T06:45:15.445Z,14
2023-04-25T06:46:15.539Z,14
2023-04-25T06:47:14.947Z,17
2023-04-25T06:48:15.206Z,17
2023-04-25T06:49:15.250Z,17
2023-04-25T06:50:15.545Z,17
2023-04-25T06:51:14.794Z,17
2023-04-25T06:52:14.997Z,14
2023-04-25T06:53:15.291Z,14
2023-04-25T06:54:15.662Z,14
2023-04-25T06:55:15.058Z,14
2023-04-25T06:56:14.157Z,14
2023-04-25T06:57:15.289Z,18
2023-04-25T06:58:15.641Z,18
2023-04-25T06:59:14.847Z,18
2023-04-25T07:00:15.525Z,18
2023-04-25T07:01:15.811Z,18
2023-04-25T07:02:15.818Z,15
2023-04-25T07:03:15.856Z,15
2023-04-25T07:04:16.723Z,15
2023-04-25T07:05:16.525Z,15
2023-04-25T07:06:14.892Z,15
2023-04-25T07:07:15.262Z,25
2023-04-25T07:08:15.579Z,25
2023-04-25T07:14:14.799Z,19
2023-04-25T07:15:15.139Z,19
2023-04-25T07:16:14.878Z,19
2023-04-25T07:17:14.691Z,12
2023-04-25T07:18:15.128Z,12
2023-04-25T07:19:15.447Z,12
2023-04-25T07:20:15.372Z,12
2023-04-25T07:23:14.814Z,11
2023-04-25T07:24:15.041Z,11
2023-04-25T07:25:15.680Z,11
2023-04-25T07:26:15.018Z,11
2023-04-25T07:27:14.748Z,8
2023-04-25T07:28:14.632Z,8
2023-04-25T07:29:14.891Z,8
2023-04-25T07:30:15.410Z,8
2023-04-25T07:31:15.496Z,8
2023-04-25T07:32:14.870Z,7
2023-04-25T07:33:15.118Z,7
2023-04-25T07:34:14.607Z,7
2023-04-25T07:35:14.966Z,7
2023-04-25T07:39:14.709Z,11
2023-04-25T07:40:15.103Z,11
2023-04-25T07:41:14.615Z,11
2023-04-25T07:42:15.037Z,8
2023-04-25T07:43:15.549Z,8
2023-04-25T07:44:15.379Z,8
2023-04-25T07:45:15.501Z,8
2023-04-25T07:46:15.147Z,8
2023-04-25T07:48:15.120Z,13
2023-04-25T07:49:15.394Z,13
2023-04-25T07:50:14.969Z,13
2023-04-25T07:51:15.089Z,13
2023-04-25T07:52:15.265Z,9
2023-04-25T07:53:15.368Z,9
2023-04-25T07:54:14.488Z,9
2023-04-25T07:55:15.128Z,9
2023-04-25T07:56:15.463Z,9
2023-04-25T07:57:15.607Z,13
2023-04-25T07:58:14.708Z,13
2023-04-25T07:59:14.946Z,13
2023-04-25T08:00:15.194Z,13
2023-04-25T08:01:15.677Z,13
2023-04-25T08:02:15.302Z,15
2023-04-25T08:03:16.756Z,15
2023-04-25T08:07:14.508Z,12
2023-04-25T08:08:15.232Z,12
2023-04-25T08:09:14.943Z,12
2023-04-25T08:10:15.209Z,12
2023-04-25T08:11:15.190Z,12
2023-04-25T08:12:15.461Z,15
2023-04-25T08:15:14.473Z,15
2023-04-25T08:16:15.390Z,15
2023-04-25T08:17:15.131Z,12
2023-04-25T08:18:18.009Z,12
2023-04-25T08:19:14.945Z,12
2023-04-25T08:20:15.075Z,12
2023-04-25T08:25:14.967Z,11
2023-04-25T08:28:14.817Z,6
2023-04-25T08:29:14.591Z,6
2023-04-25T08:30:15.161Z,6
2023-04-25T08:31:15.689Z,6
2023-04-25T08:32:14.734Z,7
2023-04-25T08:33:15.348Z,7
2023-04-25T08:34:15.594Z,7
2023-04-25T08:35:14.833Z,7
2023-04-25T08:36:17.383Z,7
2023-04-25T08:37:15.470Z,8
2023-04-25T08:38:14.968Z,8
2023-04-25T08:39:15.198Z,8
2023-04-25T08:40:15.294Z,8
2023-04-25T08:41:14.706Z,8
2023-04-25T08:42:15.070Z,17
2023-04-25T08:43:15.242Z,17
2023-04-25T08:44:15.623Z,17
2023-04-25T08:45:17.691Z,17
2023-04-25T08:46:15.112Z,17
2023-04-25T08:47:15.880Z,17
2023-04-25T08:48:15.715Z,17
2023-04-25T08:49:14.657Z,17
2023-04-25T08:50:15.085Z,17
2023-04-25T08:53:15.421Z,8
2023-04-25T08:54:44.582Z,8
2023-04-25T08:56:14.644Z,8
2023-04-25T08:57:15.150Z,13
2023-04-25T08:59:14.513Z,13
2023-04-25T09:00:15.192Z,13
2023-04-25T09:01:15.337Z,13
2023-04-25T09:02:15.841Z,18
2023-04-25T09:03:17.061Z,18
2023-04-25T09:04:15.584Z,18
2023-04-25T09:06:15.614Z,18
2023-04-25T09:07:15.125Z,15
2023-04-25T09:08:14.849Z,15
2023-04-25T09:09:16.082Z,15
2023-04-25T09:11:14.758Z,15
2023-04-25T09:12:15.302Z,12
2023-04-25T09:13:15.374Z,12
2023-04-25T09:14:15.352Z,12
2023-04-25T09:18:15.841Z,11
2023-04-25T09:19:14.673Z,11
2023-04-25T09:20:14.694Z,11
2023-04-25T09:26:14.739Z,23
2023-04-25T09:27:15.258Z,27
2023-04-25T09:28:15.327Z,27
2023-04-25T09:29:15.666Z,27
2023-04-25T09:30:14.992Z,27
2023-04-25T09:31:14.926Z,27
2023-04-25T09:32:15.765Z,13
2023-04-25T09:33:15.026Z,13
2023-04-25T09:34:16.048Z,13
2023-04-25T09:35:15.217Z,13
2023-04-25T09:36:15.651Z,13
2023-04-25T09:37:15.055Z,11
2023-04-25T09:41:14.698Z,11
2023-04-25T09:42:14.981Z,7
2023-04-25T09:43:15.225Z,7
2023-04-25T09:44:15.654Z,7
2023-04-25T09:45:15.685Z,7
2023-04-25T09:46:15.362Z,7
2023-04-25T09:47:15.150Z,12
2023-04-25T09:48:15.683Z,12
2023-04-25T09:53:14.965Z,7
2023-04-25T09:54:15.802Z,7
2023-04-25T09:55:14.937Z,7
2023-04-25T09:56:15.268Z,7
2023-04-25T09:59:15.583Z,9
2023-04-25T10:00:15.113Z,9
2023-04-25T10:05:16.549Z,12
2023-04-25T10:06:15.304Z,12
2023-04-25T10:09:14.815Z,9
2023-04-25T10:10:15.974Z,9
2023-04-25T10:11:15.407Z,9
2023-04-25T10:12:14.538Z,9
2023-04-25T10:13:14.870Z,9
2023-04-25T10:14:15.191Z,9
2023-04-25T10:15:15.655Z,9
2023-04-25T10:16:15.511Z,9
2023-04-25T10:17:14.836Z,12
2023-04-25T10:18:15.493Z,12
2023-04-25T10:20:14.947Z,12
2023-04-25T10:21:15.049Z,12
2023-04-25T10:22:15.427Z,9
2023-04-25T10:23:14.636Z,9
2023-04-25T10:24:14.997Z,9
2023-04-25T10:25:15.992Z,9
2023-04-25T10:26:14.565Z,9
2023-04-25T10:27:14.927Z,20
2023-04-25T10:28:15.090Z,20
2023-04-25T10:29:15.365Z,20
2023-04-25T10:32:15.843Z,7
2023-04-25T10:34:14.635Z,7
2023-04-25T10:35:14.817Z,7
2023-04-25T10:36:15.015Z,7
2023-04-25T10:37:15.341Z,9
2023-04-25T10:38:14.978Z,9
2023-04-25T10:42:14.724Z,15
2023-04-25T10:43:17.242Z,15
2023-04-25T10:46:15.409Z,15
2023-04-25T10:47:16.339Z,9
2023-04-25T10:48:15.181Z,9
2023-04-25T10:49:18.275Z,9
2023-04-25T10:53:14.763Z,7
2023-04-25T10:54:14.946Z,7
2023-04-25T10:55:15.447Z,7
2023-04-25T10:56:18.996Z,7
2023-04-25T10:57:14.833Z,17
2023-04-25T10:58:15.236Z,17
2023-04-25T10:59:15.787Z,17
2023-04-25T11:02:15.878Z,9
2023-04-25T11:03:15.270Z,9
2023-04-25T11:04:16.398Z,9
2023-04-25T11:05:14.977Z,9
2023-04-25T11:06:15.514Z,9
2023-04-25T11:11:15.031Z,9
2023-04-25T11:12:15.341Z,18
2023-04-25T11:14:14.533Z,18
2023-04-25T11:15:14.797Z,18
2023-04-25T11:19:15.271Z,19
2023-04-25T11:20:15.129Z,19
2023-04-25T11:21:15.186Z,19
2023-04-25T11:22:14.518Z,23
2023-04-25T11:23:10.549Z,18
2023-04-25T11:23:14.869Z,23
2023-04-25T11:24:15.010Z,23
2023-04-25T11:25:15.539Z,23
2023-04-25T11:26:15.424Z,23
2023-04-25T11:27:14.606Z,19
2023-04-25T11:28:15.059Z,19
2023-04-25T11:29:15.325Z,19
2023-04-25T11:30:14.954Z,19
2023-04-25T11:31:14.755Z,19
2023-04-25T11:32:15.741Z,28
2023-04-25T11:34:15.260Z,28
2023-04-25T11:35:14.851Z,28
2023-04-25T11:36:14.955Z,28
2023-04-25T11:37:15.556Z,25
2023-04-25T11:38:14.862Z,25
2023-04-25T11:39:15.687Z,25
2023-04-25T11:46:15.149Z,18
2023-04-25T11:47:15.222Z,18
2023-04-25T11:48:15.590Z,18
2023-04-25T11:49:15.480Z,18
2023-04-25T11:50:14.933Z,18
2023-04-25T11:54:14.944Z,19
2023-04-25T11:55:18.010Z,19
2023-04-25T11:56:14.864Z,19
2023-04-25T11:57:15.095Z,13
2023-04-25T11:59:16.737Z,13
2023-04-25T12:00:19.203Z,13
2023-04-25T12:01:14.903Z,13
2023-04-25T12:02:15.214Z,14
2023-04-25T12:03:16.479Z,14
2023-04-25T12:04:17.168Z,14
2023-04-25T12:05:40.955Z,14
2023-04-25T12:08:14.562Z,15
2023-04-25T12:09:14.840Z,15
2023-04-25T12:10:15.349Z,15
2023-04-25T12:11:15.047Z,15
2023-04-25T12:12:15.211Z,20
2023-04-25T12:13:16.374Z,20
2023-04-25T12:14:15.487Z,20
2023-04-25T12:15:14.836Z,20
2023-04-25T12:16:15.481Z,20
2023-04-25T12:17:15.251Z,21
2023-04-25T12:18:15.064Z,21
2023-04-25T12:21:14.494Z,21
2023-04-25T12:22:15.294Z,15
2023-04-25T12:23:15.430Z,15
2023-04-25T12:24:14.789Z,15
2023-04-25T12:25:15.147Z,15
2023-04-25T12:26:15.167Z,15
2023-04-25T12:27:16.251Z,12
2023-04-25T12:28:14.865Z,12
2023-04-25T12:29:14.763Z,12
2023-04-25T12:30:14.838Z,12
2023-04-25T12:31:15.971Z,12
2023-04-25T12:32:14.538Z,19
2023-04-25T12:33:15.033Z,19
2023-04-25T12:34:15.068Z,19
2023-04-25T12:35:15.524Z,19
2023-04-25T12:36:17.170Z,19
2023-04-25T12:37:14.780Z,15
2023-04-25T12:38:14.583Z,15
2023-04-25T12:39:15.018Z,15
2023-04-25T12:40:15.412Z,15
2023-04-25T12:41:15.295Z,15
2023-04-25T12:43:14.754Z,12
2023-04-25T12:44:15.154Z,12
2023-04-25T12:45:15.271Z,12
2023-04-25T12:46:15.584Z,12
2023-04-25T12:47:15.891Z,15
2023-04-25T12:48:15.319Z,15
2023-04-25T12:51:15.546Z,15
2023-04-25T12:52:14.741Z,17
2023-04-25T12:53:14.999Z,17
2023-04-25T12:54:15.483Z,17
2023-04-25T12:55:14.645Z,17
2023-04-25T12:56:14.976Z,17
2023-04-25T12:57:15.288Z,17
2023-04-25T13:00:15.115Z,17
2023-04-25T13:01:15.619Z,17
2023-04-25T13:02:15.728Z,13
2023-04-25T13:03:15.746Z,13
2023-04-25T13:04:16.332Z,13
2023-04-25T13:05:15.362Z,13
2023-04-25T13:09:14.708Z,9
2023-04-25T13:10:14.823Z,9
2023-04-25T13:11:15.063Z,9
2023-04-25T13:12:15.431Z,14
2023-04-25T13:13:14.745Z,14
2023-04-25T13:14:14.553Z,14
2023-04-25T13:15:15.245Z,14
2023-04-25T13:16:16.087Z,14
2023-04-25T13:17:14.826Z,17
2023-04-25T13:18:15.516Z,17
2023-04-25T13:19:15.091Z,17
2023-04-25T13:20:15.491Z,17
2023-04-25T13:22:15.067Z,13
2023-04-25T13:23:16.084Z,13
2023-04-25T13:24:15.021Z,13
2023-04-25T13:25:15.415Z,13
2023-04-25T13:26:15.565Z,13
2023-04-25T13:30:14.758Z,14
2023-04-25T13:31:15.227Z,14
2023-04-25T13:32:15.882Z,12
2023-04-25T13:33:14.996Z,12
2023-04-25T13:34:15.056Z,12
2023-04-25T13:35:19.936Z,12
2023-04-25T13:36:15.276Z,12
2023-04-25T13:39:14.597Z,9
2023-04-25T13:40:15.496Z,9
2023-04-25T13:41:16.213Z,9
2023-04-25T13:42:15.368Z,11
2023-04-25T13:44:14.995Z,11
2023-04-25T13:45:15.479Z,11
2023-04-25T13:46:49.122Z,11
2023-04-25T13:50:15.392Z,26
2023-04-25T13:54:14.696Z,21
2023-04-25T13:55:14.918Z,21
2023-04-25T13:56:15.621Z,21
2023-04-25T13:57:14.972Z,14
2023-04-25T13:58:15.865Z,14
2023-04-25T13:59:15.445Z,14
2023-04-25T14:00:14.748Z,14
2023-04-25T14:01:15.458Z,14
2023-04-25T14:04:15.596Z,8
2023-04-25T14:05:15.899Z,8
2023-04-25T14:06:14.900Z,8
2023-04-25T14:07:15.003Z,8
2023-04-25T14:08:15.534Z,8
2023-04-25T14:13:17.075Z,5
2023-04-25T14:14:14.704Z,5
2023-04-25T14:15:15.559Z,5
2023-04-25T14:16:15.783Z,5
2023-04-25T14:19:15.102Z,6
2023-04-25T14:20:14.676Z,6
2023-04-25T14:21:14.706Z,6
2023-04-25T14:22:15.038Z,15
2023-04-25T14:23:15.245Z,15
2023-04-25T14:24:15.339Z,15
2023-04-25T14:25:15.630Z,15
2023-04-25T14:26:14.533Z,15
2023-04-25T14:27:14.705Z,7
2023-04-25T14:28:14.972Z,7
2023-04-25T14:29:15.561Z,7
2023-04-25T14:30:14.691Z,7
2023-04-25T14:31:15.238Z,7
2023-04-25T14:32:15.501Z,13
2023-04-25T14:33:15.967Z,13
2023-04-25T14:36:14.498Z,13
2023-04-25T14:37:14.807Z,13
2023-04-25T14:38:13.628Z,13
2023-04-25T14:39:15.181Z,13
2023-04-25T14:40:15.480Z,13
2023-04-25T14:41:15.492Z,13
2023-04-25T14:42:14.782Z,12
2023-04-25T14:43:15.046Z,12
2023-04-25T14:44:13.808Z,12
2023-04-25T14:45:15.122Z,12
2023-04-25T14:46:15.011Z,12
2023-04-25T14:47:14.303Z,20
2023-04-25T14:48:15.416Z,20
2023-04-25T14:50:14.865Z,20
2023-04-25T14:51:15.599Z,20
2023-04-25T14:52:14.710Z,12
2023-04-25T14:53:15.046Z,12
2023-04-25T14:54:15.294Z,12
2023-04-25T14:55:15.366Z,12
2023-04-25T14:56:14.856Z,12
2023-04-25T14:57:15.093Z,17
2023-04-25T14:58:15.392Z,17
2023-04-25T15:01:14.974Z,17
2023-04-25T15:02:15.411Z,14
2023-04-25T15:03:16.293Z,14
2023-04-25T15:04:15.510Z,14
2023-04-25T15:05:15.764Z,14
2023-04-25T15:06:14.578Z,14
2023-04-25T15:07:16.402Z,12
2023-04-25T15:08:14.991Z,12
2023-04-25T15:09:15.450Z,12
2023-04-25T15:10:15.452Z,12
2023-04-25T15:11:14.793Z,12
2023-04-25T15:12:15.316Z,13
2023-04-25T15:13:14.704Z,13
2023-04-25T15:14:14.837Z,13
2023-04-25T15:15:26.364Z,13
2023-04-25T15:16:15.243Z,13
2023-04-25T15:17:15.938Z,9
2023-04-25T15:20:14.926Z,9
2023-04-25T15:21:14.657Z,9
2023-04-25T15:22:15.002Z,13
2023-04-25T15:23:14.987Z,13
2023-04-25T15:24:14.911Z,13
2023-04-25T15:25:13.947Z,13
2023-04-25T15:26:15.231Z,13
2023-04-25T15:28:14.790Z,11
2023-04-25T15:29:17.266Z,11
2023-04-25T15:30:14.974Z,11
2023-04-25T15:33:15.054Z,15
2023-04-25T15:34:14.721Z,15
2023-04-25T15:35:15.156Z,15
2023-04-25T15:36:15.011Z,15
2023-04-25T15:37:15.213Z,19
2023-04-25T15:38:15.595Z,19
2023-04-25T15:39:14.693Z,19
2023-04-25T15:40:15.216Z,19
2023-04-25T15:42:15.175Z,14
2023-04-25T15:43:15.732Z,14
2023-04-25T15:44:14.726Z,14
2023-04-25T15:45:15.170Z,14
2023-04-25T15:46:15.672Z,14
2023-04-25T15:47:15.295Z,9
2023-04-25T15:51:14.235Z,9
2023-04-25T15:52:14.785Z,11
2023-04-25T15:53:17.775Z,11
2023-04-25T15:54:14.507Z,11
2023-04-25T15:55:14.992Z,11
2023-04-25T15:56:14.865Z,11
2023-04-25T15:57:14.710Z,18
2023-04-25T15:59:14.520Z,18
2023-04-25T16:00:14.712Z,18
2023-04-25T16:01:15.172Z,18
2023-04-25T16:02:15.245Z,19
2023-04-25T16:03:16.163Z,19
2023-04-25T16:04:16.916Z,19
2023-04-25T16:05:16.288Z,19
2023-04-25T16:06:14.615Z,19
2023-04-25T16:07:14.944Z,20
2023-04-25T16:08:15.234Z,20
2023-04-25T16:09:15.423Z,20
2023-04-25T16:10:14.736Z,20
2023-04-25T16:11:14.948Z,20
2023-04-25T16:12:15.368Z,14
2023-04-25T16:13:15.636Z,14
2023-04-25T16:14:14.783Z,14
2023-04-25T16:15:15.140Z,14
2023-04-25T16:16:15.468Z,14
2023-04-25T16:17:15.125Z,18
2023-04-25T16:18:15.663Z,18
2023-04-25T16:19:15.140Z,18
2023-04-25T16:21:15.227Z,18
2023-04-25T16:22:14.903Z,19
2023-04-25T16:23:14.936Z,19
2023-04-25T16:24:15.263Z,19
2023-04-25T16:25:15.622Z,19
2023-04-25T16:26:15.068Z,19
2023-04-25T16:27:15.482Z,13
2023-04-25T16:28:14.700Z,13
2023-04-25T16:29:15.062Z,13
2023-04-25T16:30:15.405Z,13
2023-04-25T16:31:15.130Z,13
2023-04-25T16:32:14.942Z,14
2023-04-25T16:33:15.367Z,14
2023-04-25T16:34:15.080Z,14
2023-04-25T16:35:16.469Z,14
2023-04-25T16:40:14.702Z,19
2023-04-25T16:41:15.307Z,19
2023-04-25T16:42:14.534Z,13
2023-04-25T16:43:15.220Z,13
2023-04-25T16:44:15.008Z,13
2023-04-25T16:45:15.593Z,13
2023-04-25T16:46:15.397Z,13
2023-04-25T16:47:21.634Z,15
2023-04-25T16:50:15.648Z,15
2023-04-25T16:51:15.889Z,15
2023-04-25T16:52:14.814Z,17
2023-04-25T16:53:15.032Z,17
2023-04-25T16:54:15.304Z,17
2023-04-25T16:55:14.637Z,17
2023-04-25T16:56:15.103Z,17
2023-04-25T16:57:15.241Z,19
2023-04-25T16:58:18.445Z,19
2023-04-25T16:59:14.582Z,19
2023-04-25T17:00:15.041Z,19
2023-04-25T17:01:15.310Z,19
2023-04-25T17:02:16.051Z,19
2023-04-25T17:04:15.849Z,19
2023-04-25T17:06:15.045Z,19
2023-04-25T17:07:14.888Z,15
2023-04-25T17:11:15.429Z,15
2023-04-25T17:12:14.590Z,15
2023-04-25T17:13:14.697Z,15
2023-04-25T17:14:15.302Z,15
2023-04-25T17:15:14.545Z,15
2023-04-25T17:16:15.295Z,15
2023-04-25T17:17:15.998Z,17
2023-04-25T17:18:15.430Z,17
2023-04-25T17:19:14.937Z,17
2023-04-25T17:20:15.795Z,17
2023-04-25T17:21:15.250Z,17
2023-04-25T17:22:15.829Z,13
2023-04-25T17:25:14.618Z,13
2023-04-25T17:26:15.151Z,13
2023-04-25T17:27:15.185Z,14
2023-04-25T17:28:15.622Z,14
2023-04-25T17:29:15.664Z,14
2023-04-25T17:30:15.446Z,14
2023-04-25T17:31:15.673Z,14
2023-04-25T17:32:16.979Z,19
2023-04-25T17:33:16.085Z,19
2023-04-25T17:34:15.407Z,19
2023-04-25T17:35:14.786Z,19
2023-04-25T17:36:15.204Z,19
2023-04-25T17:39:14.684Z,18
2023-04-25T17:40:15.068Z,18
2023-04-25T17:41:15.270Z,18
2023-04-25T17:42:15.052Z,13
2023-04-25T17:43:15.214Z,13
2023-04-25T17:44:15.368Z,13
2023-04-25T17:45:14.903Z,13
2023-04-25T17:46:15.167Z,13
2023-04-25T17:47:17.227Z,14
2023-04-25T17:48:15.234Z,14
2023-04-25T17:49:15.480Z,14
2023-04-25T17:50:14.840Z,14
2023-04-25T17:51:15.192Z,14
2023-04-25T17:52:14.253Z,12
2023-04-25T17:53:15.345Z,12
2023-04-25T17:55:13.982Z,12
2023-04-25T17:56:33.958Z,12
2023-04-25T17:59:14.949Z,12
2023-04-25T18:00:16.721Z,12
2023-04-25T18:01:14.971Z,12
2023-04-25T18:02:15.144Z,14
2023-04-25T18:03:15.562Z,14
2023-04-25T18:05:14.939Z,14
2023-04-25T18:06:14.937Z,14
2023-04-25T18:07:15.053Z,9
2023-04-25T18:08:14.629Z,9
2023-04-25T18:09:14.568Z,9
2023-04-25T18:10:14.798Z,9
2023-04-25T18:11:14.967Z,9
2023-04-25T18:12:15.128Z,11
2023-04-25T18:13:15.228Z,11
2023-04-25T18:14:15.407Z,11
2023-04-25T18:17:15.455Z,9